Latest Weather Observations for Richmond

IDQ60801

Issued at 11:02 am EST Tuesday 30 August 2016 (issued every 30 minutes, with the page automatically refreshed every 10 minutes)

About weather observations | Map of weather stations | Latest weather observations for QLD | Other Formats
Station Details ID: 030161 Name: RICHMOND AIRPORT Lat: -20.70 Lon: 143.12 Height: 206.3 m
Data from the previous 72 hours. | See also: Recent months at Richmond
Date/Time
EST
Temp
°C
App
Temp
°C
Dew
Point
°C
Rel
Hum
%
Delta-T
°C
Wind Press
QNH
hPa
Press
MSL
hPa
Rain since
9am
mm
Dir  Spd
km/h
Gust
km/h
Spd
kts
Gust
kts
30/11:00am 26.3 25.6 14.4 48 7.1 NNW 11 20 6 11 1021.1 1020.5 0.0
30/10:30am 24.8 22.6 13.4 49 6.7 N 17 24 9 13 1021.3 1020.7 0.0
30/10:00am 24.1 22.3 13.3 51 6.3 NNE 15 22 8 12 1021.4 1020.8 0.0
30/09:30am 23.1 21.3 13.3 54 5.7 NNE 15 24 8 13 1021.2 1020.6 0.0
30/09:00am 21.6 20.4 12.7 57 5.1 NE 11 17 6 9 1021.0 1020.4 0.0
30/08:30am 20.2 19.0 12.9 63 4.2 ENE 11 17 6 9 1020.6 1020.0 0.0
30/08:00am 18.1 17.0 12.1 68 3.3 E 9 13 5 7 1020.3 1019.7 0.0
30/07:30am 14.4 12.8 11.4 82 1.6 E 11 13 6 7 1020.1 1019.5 0.0
30/07:00am 12.4 10.5 10.6 89 0.9 ESE 11 13 6 7 1019.9 1019.3 0.0
30/06:30am 11.0 9.2 8.1 82 1.4 E 7 7 4 4 1019.6 1019.0 0.0
30/06:00am 12.5 11.0 8.6 77 2.0 E 6 7 3 4 1018.9 1018.4 0.0
30/05:30am 14.1 12.5 10.3 78 2.0 E 9 11 5 6 1018.4 1017.9 0.0
30/05:00am 15.2 14.1 10.6 74 2.4 ENE 7 9 4 5 1018.0 1017.4 0.0
30/04:30am 16.1 14.7 10.8 71 2.9 ENE 9 13 5 7 1017.6 1017.0 0.0
30/04:00am 16.7 14.9 11.0 69 3.1 ENE 11 17 6 9 1017.1 1016.5 0.0
30/03:30am 17.5 15.0 11.1 66 3.5 NE 15 20 8 11 1016.8 1016.2 0.0
30/03:00am 17.9 15.1 11.2 65 3.7 ENE 17 22 9 12 1016.6 1016.0 0.0
30/02:30am 18.4 15.6 11.5 64 3.8 NE 17 24 9 13 1016.6 1016.0 0.0
30/02:00am 18.8 15.4 11.4 62 4.1 NE 20 32 11 17 1016.5 1015.9 0.0
30/01:30am 19.2 16.1 11.5 61 4.3 NE 19 24 10 13 1016.9 1016.3 0.0
30/01:00am 19.7 17.4 11.7 60 4.5 ENE 15 20 8 11 1017.1 1016.5 0.0
30/12:30am 19.9 17.1 11.4 58 4.7 NE 17 20 9 11 1017.1 1016.5 0.0
30/12:00am 20.7 17.8 11.1 54 5.3 ENE 17 22 9 12 1017.0 1016.4 0.0
 
Date/Time
EST
Temp
°C
App
Temp
°C
Dew
Point
°C
Rel
Hum
%
Delta-T
°C
Wind Press
QNH
hPa
Press
MSL
hPa
Rain since
9am
mm
Dir  Spd
km/h
Gust
km/h
Spd
kts
Gust
kts
29/11:30pm 20.7 18.8 10.5 52 5.6 ENE 11 17 6 9 1017.0 1016.4 0.0
29/11:00pm 19.7 17.3 9.9 53 5.3 ENE 13 17 7 9 1016.9 1016.3 0.0
29/10:30pm 19.0 16.6 8.6 51 5.5 E 11 15 6 8 1016.9 1016.3 0.0
29/10:00pm 19.5 17.0 8.2 48 5.9 ENE 11 15 6 8 1016.9 1016.3 0.0
29/09:30pm 20.7 16.8 7.3 42 6.9 E 17 20 9 11 1016.9 1016.3 0.0
29/09:00pm 22.1 17.6 7.1 38 7.8 ESE 20 26 11 14 1016.7 1016.1 0.0
29/08:30pm 20.9 16.7 7.5 42 7.0 SE 19 20 10 11 1016.6 1016.0 0.0
29/08:00pm 22.1 18.0 7.9 40 7.5 ESE 19 20 10 11 1016.6 1016.0 0.0
29/07:30pm 22.4 18.4 8.1 40 7.6 SE 19 19 10 10 1016.4 1015.8 0.0
29/07:00pm 22.6 19.0 8.3 40 7.6 SE 17 19 9 10 1016.1 1015.5 0.0
29/06:30pm 24.2 20.4 7.4 34 8.9 ESE 17 19 9 10 1015.9 1015.3 0.0
29/06:00pm 27.2 24.7 8.1 30 10.4 E 11 15 6 8 1015.7 1015.1 0.0
29/05:30pm 29.5 26.4 7.4 25 12.0 E 13 17 7 9 1015.5 1014.9 0.0
29/05:00pm 29.3 26.1 6.7 24 12.2 E 13 20 7 11 1015.5 1014.9 0.0
29/04:30pm 29.6 26.4 6.9 24 12.3 ENE 13 24 7 13 1015.3 1014.7 0.0
29/04:00pm 29.9 26.5 7.8 25 12.1 NE 15 22 8 12 1015.3 1014.7 0.0
29/03:30pm 30.4 27.6 8.7 26 12.1 NE 13 20 7 11 1015.5 1014.9 0.0
29/03:00pm 30.2 28.1 9.7 28 11.6 NE 11 17 6 9 1015.6 1015.0 0.0
29/02:30pm 29.9 28.5 9.4 28 11.6 NE 7 13 4 7 1015.9 1015.3 0.0
29/02:00pm 29.7 27.5 9.3 28 11.5 ENE 11 15 6 8 1016.3 1015.7 0.0
29/01:30pm 29.4 26.8 9.5 29 11.2 ENE 13 22 7 12 1016.8 1016.2 0.0
29/01:00pm 29.2 26.1 8.8 28 11.3 ENE 15 24 8 13 1017.1 1016.5 0.0
29/12:30pm 28.5 25.7 8.7 29 11.0 ENE 13 22 7 12 1017.5 1016.9 0.0
29/12:00pm 27.5 24.4 8.9 31 10.3 ENE 15 22 8 12 1018.0 1017.4 0.0
29/11:30am 26.6 23.7 9.5 34 9.5 ENE 15 24 8 13 1018.4 1017.9 0.0
29/11:00am 25.9 22.7 10.1 37 8.8 NE 17 24 9 13 1018.9 1018.4 0.0
29/10:30am 24.6 21.4 10.1 40 8.1 NE 17 26 9 14 1019.2 1018.7 0.0
29/10:00am 23.3 20.3 9.3 41 7.6 ENE 15 20 8 11 1019.6 1019.0 0.0
29/09:30am 21.7 18.6 8.9 44 6.9 ENE 15 22 8 12 1019.4 1018.9 0.0
29/09:00am 20.4 16.4 8.4 46 6.3 NE 19 26 10 14 1019.6 1019.0 0.0
29/08:30am 19.0 15.3 7.8 48 5.8 NE 17 24 9 13 1019.2 1018.7 0.0
29/08:00am 17.7 14.3 7.7 52 5.1 NE 15 22 8 12 1018.9 1018.4 0.0
29/07:56am 17.5 14.7 8.4 55 4.7 NE 13 19 7 10 1018.9 1018.4 0.0
29/07:30am 12.5 10.7 7.8 73 2.3 ENE 7 7 4 4 1018.6 1018.1 0.0
29/07:00am 10.9 8.4 4.6 65 2.9 ENE 7 11 4 6 1018.1 1017.5 0.0
29/06:30am 13.4 11.0 7.2 66 3.0 ENE 9 13 5 7 1017.6 1017.0 0.0
29/06:00am 13.6 10.9 7.2 65 3.1 ENE 11 13 6 7 1017.3 1016.7 0.0
29/05:30am 11.7 8.9 5.3 65 3.0 NE 9 13 5 7 1016.9 1016.3 0.0
29/05:00am 13.7 11.0 7.5 66 3.1 NE 11 15 6 8 1016.5 1015.9 0.0
29/04:30am 13.3 10.6 7.3 67 3.0 ENE 11 13 6 7 1016.2 1015.6 0.0
29/04:00am 13.1 10.6 6.7 65 3.1 ENE 9 11 5 6 1016.2 1015.6 0.0
29/03:30am 13.6 10.9 7.2 65 3.2 ENE 11 15 6 8 1016.1 1015.5 0.0
29/03:00am 12.6 10.1 6.4 66 3.0 ENE 9 13 5 7 1016.3 1015.7 0.0
29/02:30am 12.7 10.0 5.8 63 3.3 ENE 9 11 5 6 1016.4 1015.8 0.0
29/02:00am 11.4 8.5 4.8 64 3.0 E 9 11 5 6 1016.5 1015.9 0.0
29/01:30am 13.2 10.3 4.6 56 4.0 ENE 9 11 5 6 1016.5 1015.9 0.0
29/01:00am 12.3 9.2 3.8 56 3.8 E 9 11 5 6 1016.6 1016.0 0.0
29/12:30am 14.3 11.3 4.0 50 4.8 ENE 9 13 5 7 1016.7 1016.1 0.0
29/12:00am 15.3 11.1 3.8 46 5.3 E 15 17 8 9 1016.9 1016.3 0.0
 
Date/Time
EST
Temp
°C
App
Temp
°C
Dew
Point
°C
Rel
Hum
%
Delta-T
°C
Wind Press
QNH
hPa
Press
MSL
hPa
Rain since
9am
mm
Dir  Spd
km/h
Gust
km/h
Spd
kts
Gust
kts
28/11:30pm 14.7 11.3 4.1 49 4.9 ESE 11 13 6 7 1017.0 1016.4 0.0
28/11:00pm 13.9 11.2 5.8 58 3.9 SE 9 11 5 6 1017.1 1016.5 0.0
28/10:30pm 15.1 11.9 6.7 57 4.1 SE 13 15 7 8 1017.1 1016.5 0.0
28/10:00pm 15.0 12.0 5.8 54 4.4 SSE 11 15 6 8 1017.3 1016.7 0.0
28/09:30pm 17.3 12.9 6.5 49 5.4 SSE 19 26 10 14 1017.4 1016.8 0.0
28/09:00pm 16.6 13.5 5.6 48 5.3 S 11 13 6 7 1017.3 1016.7 0.0
28/08:30pm 18.2 15.5 5.4 43 6.3 S 9 9 5 5 1017.3 1016.7 0.0
28/08:00pm 18.6 15.7 4.8 40 6.7 SSW 9 11 5 6 1017.2 1016.6 0.0
28/07:30pm 20.3 17.5 5.1 37 7.5 SW 9 13 5 7 1017.1 1016.5 0.0
28/07:00pm 21.1 18.2 4.6 34 8.1 SW 9 11 5 6 1016.7 1016.1 0.0
28/06:30pm 22.5 19.9 5.9 34 8.5 SW 9 11 5 6 1016.5 1015.9 0.0
28/06:00pm 25.2 23.1 5.9 29 10.0 SW 6 7 3 4 1016.3 1015.7 0.0
28/05:30pm 26.4 23.9 4.8 25 11.1 WSW 7 9 4 5 1016.2 1015.6 0.0
28/05:00pm 26.9 23.6 4.6 24 11.4 W 11 17 6 9 1016.1 1015.5 0.0
28/04:30pm 27.3 24.2 3.7 22 11.9 WSW 9 17 5 9 1015.9 1015.3 0.0
28/04:00pm 27.4 24.2 5.1 24 11.5 W 11 17 6 9 1015.9 1015.3 0.0
28/03:30pm 27.6 25.2 5.2 24 11.6 W 7 13 4 7 1015.8 1015.2 0.0
28/03:00pm 27.0 24.7 4.7 24 11.4 ENE 6 11 3 6 1016.0 1015.4 0.0
28/02:30pm 26.6 23.8 5.0 25 11.1 NNE 9 13 5 7 1016.4 1015.8 0.0
28/02:00pm 26.7 24.0 5.6 26 11.0 NNW 9 13 5 7 1016.8 1016.2 0.0
28/01:30pm 25.7 22.2 5.3 27 10.5 N 13 17 7 9 1017.3 1016.7 0.0
28/01:00pm 25.7 23.3 6.8 30 10.0 NE 9 17 5 9 1017.8 1017.2 0.0
28/12:30pm 24.8 22.1 5.6 29 9.9 NNE 9 15 5 8 1018.3 1017.8 0.0
28/12:00pm 23.8 20.2 6.6 33 8.9 ENE 15 22 8 12 1018.9 1018.4 0.0
28/11:30am 23.1 18.7 4.6 30 9.2 NE 17 26 9 14 1019.2 1018.7 0.0
28/11:00am 22.3 17.9 4.8 32 8.7 E 17 24 9 13 1019.8 1019.2 0.0
28/10:30am 21.4 17.0 4.5 33 8.3 ENE 17 26 9 14 1020.3 1019.7 0.0
28/10:00am 20.2 15.3 3.9 34 7.8 ENE 19 24 10 13 1020.5 1019.9 0.0
28/09:30am 18.7 13.4 5.2 41 6.6 E 22 33 12 18 1020.6 1020.0 0.0
28/09:00am 17.5 11.6 4.1 41 6.3 E 24 33 13 18 1020.4 1019.8 0.0
28/08:30am 16.6 11.7 4.3 44 5.8 E 19 32 10 17 1020.5 1019.9 0.0
28/08:00am 12.8 8.6 5.5 61 3.4 E 17 19 9 10 1020.4 1019.8 0.0
28/07:30am 9.6 6.4 5.0 73 2.1 E 11 15 6 8 1020.2 1019.6 0.0
28/07:00am 6.9 3.0 3.5 79 1.5 E 13 13 7 7 1020.0 1019.4 0.0
28/06:30am 6.7 2.7 3.1 78 1.5 ESE 13 15 7 8 1019.6 1019.0 0.0
28/06:00am 7.6 3.7 3.5 75 1.8 ESE 13 15 7 8 1019.4 1018.9 0.0
28/05:30am 7.6 3.7 3.3 74 1.8 ESE 13 17 7 9 1019.1 1018.6 0.0
28/05:00am 8.4 4.5 3.5 71 2.1 ESE 13 15 7 8 1019.0 1018.5 0.0
28/04:30am 8.4 4.1 3.3 70 2.2 ESE 15 17 8 9 1019.1 1018.6 0.0
28/04:00am 9.5 5.5 3.0 64 2.8 E 13 15 7 8 1019.1 1018.6 0.0
28/03:30am 10.4 5.3 3.2 61 3.2 ESE 19 24 10 13 1019.3 1018.8 0.0
28/03:00am 10.7 5.5 3.3 60 3.3 ESE 20 26 11 14 1019.7 1019.1 0.0
28/02:30am 11.1 5.8 3.2 58 3.5 ESE 20 30 11 16 1020.1 1019.5 0.0
28/02:00am 11.3 6.0 3.1 57 3.6 ESE 20 26 11 14 1020.4 1019.8 0.0
28/01:30am 11.4 6.1 2.9 56 3.7 ESE 20 26 11 14 1020.5 1019.9 0.0
28/01:00am 11.7 6.9 2.7 54 3.9 ESE 17 22 9 12 1020.8 1020.2 0.0
28/12:30am 12.2 7.0 2.6 52 4.2 ESE 19 26 10 14 1020.9 1020.3 0.0
28/12:00am 12.8 7.1 2.6 50 4.5 ESE 22 30 12 16 1020.8 1020.2 0.0
 
Date/Time
EST
Temp
°C
App
Temp
°C
Dew
Point
°C
Rel
Hum
%
Delta-T
°C
Wind Press
QNH
hPa
Press
MSL
hPa
Rain since
9am
mm
Dir  Spd
km/h
Gust
km/h
Spd
kts
Gust
kts
27/11:30pm 13.4 7.7 2.6 48 4.8 ESE 22 28 12 15 1020.8 1020.2 0.0
27/11:00pm 13.4 8.2 2.3 47 4.9 ESE 19 24 10 13 1020.7 1020.1 0.0
27/10:30pm 14.1 8.7 2.4 45 5.2 ESE 20 24 11 13 1020.5 1019.9 0.0
27/10:00pm 15.0 9.5 1.9 41 5.8 SE 20 28 11 15 1020.4 1019.8 0.0
27/09:30pm 15.3 9.9 2.5 42 5.8 SE 20 24 11 13 1020.3 1019.7 0.0
27/09:00pm 14.5 9.1 2.7 45 5.3 SE 20 26 11 14 1020.2 1019.6 0.0
27/08:30pm 12.6 8.4 3.6 54 4.1 SE 15 17 8 9 1020.1 1019.5 0.0
27/08:00pm 13.9 8.6 3.1 48 4.9 SSE 20 22 11 12 1020.0 1019.4 0.0
27/07:30pm 15.4 10.0 1.5 39 6.2 SE 19 24 10 13 1019.4 1018.9 0.0
27/07:00pm 15.9 10.6 1.6 38 6.4 SE 19 20 10 11 1019.3 1018.8 0.0
27/06:30pm 17.4 12.4 1.4 34 7.2 SE 17 19 9 10 1019.1 1018.6 0.0
27/06:00pm 19.9 14.8 0.9 28 8.6 ESE 17 24 9 13 1018.9 1018.4 0.0
27/05:30pm 21.4 15.7 0.6 25 9.5 ESE 20 24 11 13 1018.7 1018.2 0.0
27/05:00pm 22.1 16.4 0.6 24 9.9 ESE 20 28 11 15 1018.6 1018.1 0.0
27/04:30pm 22.7 17.0 0.5 23 10.2 E 20 33 11 18 1018.4 1017.9 0.0
27/04:00pm 22.5 16.9 0.9 24 10.0 ESE 20 32 11 17 1018.5 1018.0 0.0
27/03:30pm 23.0 17.1 1.9 25 10.0 ESE 22 33 12 18 1018.6 1018.1 0.0
27/03:00pm 22.6 17.1 1.6 25 9.9 ESE 20 32 11 17 1018.8 1018.3 0.0
27/02:30pm 22.9 17.5 2.4 26 9.8 E 20 30 11 16 1019.1 1018.6 0.0
27/02:00pm 22.5 17.0 2.1 26 9.7 E 20 35 11 19 1019.8 1019.2 0.0
27/01:30pm 21.6 15.1 0.2 24 9.7 ESE 24 37 13 20 1020.4 1019.8 0.0
27/01:00pm 21.3 15.0 1.6 27 9.1 ESE 24 35 13 19 1021.0 1020.4 0.0
27/12:30pm 21.3 15.8 1.6 27 9.2 ESE 20 39 11 21 1021.4 1020.8 0.0
27/12:00pm 20.5 13.9 1.9 29 8.6 ESE 26 37 14 20 1021.9 1021.3 0.0
27/11:45am 21.1 14.7 3.3 31 8.6 ESE 26 50 14 27 1021.9 1021.3 0.0
27/11:30am 20.4 13.5 2.3 30 8.5 ESE 28 41 15 22 1022.1 1021.5 0.0

Other Formats:

Comma delimited format used in spreadsheet applications
http://www.bom.gov.au/fwo/IDQ60801/IDQ60801.94341.axf

JavaScript Object Notation format (JSON) in row-major order
http://www.bom.gov.au/fwo/IDQ60801/IDQ60801.94341.json